sensor_id;sensor_type;location;lat;lon;timestamp;temperature;humidity
37782;DHT22;23621;50.878;4.584;2022-09-09T00:09:39;22.90;74.60
37782;DHT22;23621;50.878;4.584;2022-09-09T00:12:27;22.90;74.70
37782;DHT22;23621;50.878;4.584;2022-09-09T00:15:00;22.90;74.80
37782;DHT22;23621;50.878;4.584;2022-09-09T00:23:00;22.90;74.90
37782;DHT22;23621;50.878;4.584;2022-09-09T00:25:40;22.90;74.90
37782;DHT22;23621;50.878;4.584;2022-09-09T00:28:23;22.90;74.90
37782;DHT22;23621;50.878;4.584;2022-09-09T00:30:51;22.90;74.90
37782;DHT22;23621;50.878;4.584;2022-09-09T00:33:20;22.90;74.90
37782;DHT22;23621;50.878;4.584;2022-09-09T00:35:51;22.90;75.10
37782;DHT22;23621;50.878;4.584;2022-09-09T00:41:03;22.90;75.10
37782;DHT22;23621;50.878;4.584;2022-09-09T00:43:38;22.90;75.10
37782;DHT22;23621;50.878;4.584;2022-09-09T00:49:25;22.90;75.20
37782;DHT22;23621;50.878;4.584;2022-09-09T00:52:23;22.90;75.30
37782;DHT22;23621;50.878;4.584;2022-09-09T00:59:57;23.00;75.40
37782;DHT22;23621;50.878;4.584;2022-09-09T01:02:44;23.00;75.40
37782;DHT22;23621;50.878;4.584;2022-09-09T01:07:50;23.00;75.40
37782;DHT22;23621;50.878;4.584;2022-09-09T01:10:52;23.00;75.40
37782;DHT22;23621;50.878;4.584;2022-09-09T01:13:28;23.00;75.40
37782;DHT22;23621;50.878;4.584;2022-09-09T01:16:03;23.00;75.40
37782;DHT22;23621;50.878;4.584;2022-09-09T01:18:36;23.00;75.40
37782;DHT22;23621;50.878;4.584;2022-09-09T01:24:18;23.00;75.40
37782;DHT22;23621;50.878;4.584;2022-09-09T01:26:49;23.00;75.40
37782;DHT22;23621;50.878;4.584;2022-09-09T01:29:19;23.00;75.50
37782;DHT22;23621;50.878;4.584;2022-09-09T01:31:56;23.00;75.50
37782;DHT22;23621;50.878;4.584;2022-09-09T01:34:28;23.00;75.60
37782;DHT22;23621;50.878;4.584;2022-09-09T01:37:08;23.00;75.70
37782;DHT22;23621;50.878;4.584;2022-09-09T01:39:38;22.90;75.50
37782;DHT22;23621;50.878;4.584;2022-09-09T01:42:09;22.90;75.60
37782;DHT22;23621;50.878;4.584;2022-09-09T01:44:36;22.90;75.60
37782;DHT22;23621;50.878;4.584;2022-09-09T01:47:04;22.90;75.60
37782;DHT22;23621;50.878;4.584;2022-09-09T01:49:32;22.90;75.70
37782;DHT22;23621;50.878;4.584;2022-09-09T01:51:59;22.80;75.70
37782;DHT22;23621;50.878;4.584;2022-09-09T01:54:28;22.80;75.60
37782;DHT22;23621;50.878;4.584;2022-09-09T01:57:15;22.80;75.70
37782;DHT22;23621;50.878;4.584;2022-09-09T02:10:20;22.70;75.80
37782;DHT22;23621;50.878;4.584;2022-09-09T02:12:51;22.80;76.00
37782;DHT22;23621;50.878;4.584;2022-09-09T02:17:54;22.70;75.90
37782;DHT22;23621;50.878;4.584;2022-09-09T02:20:24;22.70;76.00
37782;DHT22;23621;50.878;4.584;2022-09-09T02:22:59;22.70;76.00
37782;DHT22;23621;50.878;4.584;2022-09-09T02:25:28;22.70;76.00
37782;DHT22;23621;50.878;4.584;2022-09-09T02:27:56;22.70;76.00
37782;DHT22;23621;50.878;4.584;2022-09-09T02:30:28;22.70;76.00
37782;DHT22;23621;50.878;4.584;2022-09-09T02:32:58;22.70;76.20
37782;DHT22;23621;50.878;4.584;2022-09-09T02:35:28;22.70;76.20
37782;DHT22;23621;50.878;4.584;2022-09-09T02:38:02;22.60;76.00
37782;DHT22;23621;50.878;4.584;2022-09-09T02:40:30;22.60;76.10
37782;DHT22;23621;50.878;4.584;2022-09-09T02:42:57;22.70;76.20
37782;DHT22;23621;50.878;4.584;2022-09-09T02:45:27;22.60;76.20
37782;DHT22;23621;50.878;4.584;2022-09-09T02:51:18;22.60;76.30
37782;DHT22;23621;50.878;4.584;2022-09-09T02:54:09;22.60;76.40
37782;DHT22;23621;50.878;4.584;2022-09-09T02:56:40;22.60;76.30
37782;DHT22;23621;50.878;4.584;2022-09-09T02:59:10;22.50;76.40
37782;DHT22;23621;50.878;4.584;2022-09-09T03:01:38;22.50;76.50
37782;DHT22;23621;50.878;4.584;2022-09-09T03:04:06;22.50;76.50
37782;DHT22;23621;50.878;4.584;2022-09-09T03:06:33;22.50;76.50
37782;DHT22;23621;50.878;4.584;2022-09-09T03:08:59;22.60;76.50
37782;DHT22;23621;50.878;4.584;2022-09-09T03:11:28;22.60;76.50
37782;DHT22;23621;50.878;4.584;2022-09-09T03:13:55;22.60;76.50
37782;DHT22;23621;50.878;4.584;2022-09-09T03:16:24;22.60;76.50
37782;DHT22;23621;50.878;4.584;2022-09-09T03:18:51;22.60;76.40
37782;DHT22;23621;50.878;4.584;2022-09-09T03:21:18;22.60;76.40
37782;DHT22;23621;50.878;4.584;2022-09-09T03:23:45;22.60;76.30
37782;DHT22;23621;50.878;4.584;2022-09-09T03:26:12;22.60;76.30
37782;DHT22;23621;50.878;4.584;2022-09-09T03:28:42;22.60;76.30
37782;DHT22;23621;50.878;4.584;2022-09-09T03:31:10;22.60;76.30
37782;DHT22;23621;50.878;4.584;2022-09-09T03:33:37;22.60;77.00
37782;DHT22;23621;50.878;4.584;2022-09-09T03:36:05;22.60;76.20
37782;DHT22;23621;50.878;4.584;2022-09-09T03:38:32;22.60;76.30
37782;DHT22;23621;50.878;4.584;2022-09-09T03:40:59;22.60;76.20
37782;DHT22;23621;50.878;4.584;2022-09-09T03:43:28;22.60;76.20
37782;DHT22;23621;50.878;4.584;2022-09-09T03:45:56;22.60;76.20
37782;DHT22;23621;50.878;4.584;2022-09-09T03:48:26;22.60;76.20
37782;DHT22;23621;50.878;4.584;2022-09-09T03:50:55;22.60;76.30
37782;DHT22;23621;50.878;4.584;2022-09-09T03:53:24;22.60;76.30
37782;DHT22;23621;50.878;4.584;2022-09-09T03:55:53;22.50;76.20
37782;DHT22;23621;50.878;4.584;2022-09-09T03:58:24;22.60;76.40
37782;DHT22;23621;50.878;4.584;2022-09-09T04:01:05;22.50;76.40
37782;DHT22;23621;50.878;4.584;2022-09-09T04:03:32;22.60;76.40
37782;DHT22;23621;50.878;4.584;2022-09-09T04:06:00;22.50;76.40
37782;DHT22;23621;50.878;4.584;2022-09-09T04:08:31;22.50;76.40
37782;DHT22;23621;50.878;4.584;2022-09-09T04:10:58;22.50;76.30
37782;DHT22;23621;50.878;4.584;2022-09-09T04:13:26;22.50;76.30
37782;DHT22;23621;50.878;4.584;2022-09-09T04:15:58;22.50;76.40
37782;DHT22;23621;50.878;4.584;2022-09-09T04:18:26;22.50;76.40
37782;DHT22;23621;50.878;4.584;2022-09-09T04:20:54;22.50;76.40
37782;DHT22;23621;50.878;4.584;2022-09-09T04:23:25;22.50;76.50
37782;DHT22;23621;50.878;4.584;2022-09-09T04:25:56;22.50;76.60
37782;DHT22;23621;50.878;4.584;2022-09-09T04:28:25;22.50;76.50
37782;DHT22;23621;50.878;4.584;2022-09-09T04:30:52;22.50;76.60
37782;DHT22;23621;50.878;4.584;2022-09-09T04:33:19;22.50;76.60
37782;DHT22;23621;50.878;4.584;2022-09-09T04:35:48;22.50;76.70
37782;DHT22;23621;50.878;4.584;2022-09-09T04:38:16;22.50;76.70
37782;DHT22;23621;50.878;4.584;2022-09-09T04:40:45;22.50;76.80
37782;DHT22;23621;50.878;4.584;2022-09-09T04:43:13;22.40;76.80
37782;DHT22;23621;50.878;4.584;2022-09-09T04:45:47;22.40;76.90
37782;DHT22;23621;50.878;4.584;2022-09-09T04:48:14;22.40;77.00
37782;DHT22;23621;50.878;4.584;2022-09-09T04:50:41;22.40;76.90
37782;DHT22;23621;50.878;4.584;2022-09-09T04:53:08;22.40;76.90
37782;DHT22;23621;50.878;4.584;2022-09-09T04:55:35;22.40;77.00
37782;DHT22;23621;50.878;4.584;2022-09-09T04:58:06;22.40;77.00
37782;DHT22;23621;50.878;4.584;2022-09-09T05:00:34;22.30;76.90
37782;DHT22;23621;50.878;4.584;2022-09-09T05:03:04;22.30;77.00
37782;DHT22;23621;50.878;4.584;2022-09-09T05:05:32;22.30;77.10
37782;DHT22;23621;50.878;4.584;2022-09-09T05:08:05;22.30;77.10
37782;DHT22;23621;50.878;4.584;2022-09-09T05:10:32;22.30;77.00
37782;DHT22;23621;50.878;4.584;2022-09-09T05:12:59;22.20;77.00
37782;DHT22;23621;50.878;4.584;2022-09-09T05:15:26;22.20;77.00
37782;DHT22;23621;50.878;4.584;2022-09-09T05:17:57;22.20;77.00
37782;DHT22;23621;50.878;4.584;2022-09-09T05:20:24;22.20;77.10
37782;DHT22;23621;50.878;4.584;2022-09-09T05:22:55;22.20;77.00
37782;DHT22;23621;50.878;4.584;2022-09-09T05:25:23;22.20;77.10
37782;DHT22;23621;50.878;4.584;2022-09-09T05:27:52;22.20;77.10
37782;DHT22;23621;50.878;4.584;2022-09-09T05:30:20;22.20;77.00
37782;DHT22;23621;50.878;4.584;2022-09-09T05:32:48;22.30;77.00
37782;DHT22;23621;50.878;4.584;2022-09-09T05:35:15;22.30;77.10
37782;DHT22;23621;50.878;4.584;2022-09-09T05:37:42;22.30;77.60
37782;DHT22;23621;50.878;4.584;2022-09-09T05:40:09;22.30;77.10
37782;DHT22;23621;50.878;4.584;2022-09-09T05:42:37;22.20;77.10
37782;DHT22;23621;50.878;4.584;2022-09-09T05:45:06;22.30;77.20
37782;DHT22;23621;50.878;4.584;2022-09-09T05:47:35;22.30;77.10
37782;DHT22;23621;50.878;4.584;2022-09-09T05:50:04;22.30;77.10
37782;DHT22;23621;50.878;4.584;2022-09-09T05:52:31;22.40;77.10
37782;DHT22;23621;50.878;4.584;2022-09-09T05:54:58;22.40;77.10
37782;DHT22;23621;50.878;4.584;2022-09-09T05:57:26;22.40;77.10
37782;DHT22;23621;50.878;4.584;2022-09-09T05:59:52;22.50;77.00
37782;DHT22;23621;50.878;4.584;2022-09-09T06:02:20;22.50;77.80
37782;DHT22;23621;50.878;4.584;2022-09-09T06:04:47;22.50;77.00
37782;DHT22;23621;50.878;4.584;2022-09-09T06:07:14;22.50;77.00
37782;DHT22;23621;50.878;4.584;2022-09-09T06:09:41;22.50;77.00
37782;DHT22;23621;50.878;4.584;2022-09-09T06:12:07;22.50;77.10
37782;DHT22;23621;50.878;4.584;2022-09-09T06:14:35;22.40;77.10
37782;DHT22;23621;50.878;4.584;2022-09-09T06:17:03;22.50;77.10
37782;DHT22;23621;50.878;4.584;2022-09-09T06:19:30;22.50;77.00
37782;DHT22;23621;50.878;4.584;2022-09-09T06:21:57;22.50;76.90
37782;DHT22;23621;50.878;4.584;2022-09-09T06:24:25;22.40;77.60
37782;DHT22;23621;50.878;4.584;2022-09-09T06:26:51;22.50;76.90
37782;DHT22;23621;50.878;4.584;2022-09-09T06:29:18;22.50;76.80
37782;DHT22;23621;50.878;4.584;2022-09-09T06:31:45;22.50;76.80
37782;DHT22;23621;50.878;4.584;2022-09-09T06:34:12;22.50;76.70
37782;DHT22;23621;50.878;4.584;2022-09-09T06:36:39;22.50;76.70
37782;DHT22;23621;50.878;4.584;2022-09-09T06:39:06;22.50;76.80
37782;DHT22;23621;50.878;4.584;2022-09-09T06:41:40;22.60;76.90
37782;DHT22;23621;50.878;4.584;2022-09-09T06:44:07;22.60;76.80
37782;DHT22;23621;50.878;4.584;2022-09-09T06:46:37;22.60;76.80
37782;DHT22;23621;50.878;4.584;2022-09-09T06:49:04;22.60;76.80
37782;DHT22;23621;50.878;4.584;2022-09-09T06:51:34;22.60;76.90
37782;DHT22;23621;50.878;4.584;2022-09-09T06:54:01;22.70;77.10
37782;DHT22;23621;50.878;4.584;2022-09-09T06:56:34;22.70;77.10
37782;DHT22;23621;50.878;4.584;2022-09-09T06:59:04;22.70;76.90
37782;DHT22;23621;50.878;4.584;2022-09-09T07:01:36;22.70;77.00
37782;DHT22;23621;50.878;4.584;2022-09-09T07:04:03;22.80;77.00
37782;DHT22;23621;50.878;4.584;2022-09-09T07:06:33;22.80;76.70
37782;DHT22;23621;50.878;4.584;2022-09-09T07:09:11;22.90;76.60
37782;DHT22;23621;50.878;4.584;2022-09-09T07:11:43;22.90;76.50
37782;DHT22;23621;50.878;4.584;2022-09-09T07:14:12;22.90;76.50
37782;DHT22;23621;50.878;4.584;2022-09-09T07:16:44;22.90;76.50
37782;DHT22;23621;50.878;4.584;2022-09-09T07:19:12;23.00;76.60
37782;DHT22;23621;50.878;4.584;2022-09-09T07:21:39;22.90;76.60
37782;DHT22;23621;50.878;4.584;2022-09-09T07:24:08;23.00;76.70
37782;DHT22;23621;50.878;4.584;2022-09-09T07:26:38;22.90;76.60
37782;DHT22;23621;50.878;4.584;2022-09-09T07:29:05;22.90;76.60
37782;DHT22;23621;50.878;4.584;2022-09-09T07:31:34;22.90;76.40
37782;DHT22;23621;50.878;4.584;2022-09-09T07:34:03;22.90;76.40
37782;DHT22;23621;50.878;4.584;2022-09-09T07:36:33;22.80;76.20
37782;DHT22;23621;50.878;4.584;2022-09-09T07:39:06;22.90;76.40
37782;DHT22;23621;50.878;4.584;2022-09-09T07:41:39;22.80;76.50
37782;DHT22;23621;50.878;4.584;2022-09-09T07:44:18;22.90;76.50
37782;DHT22;23621;50.878;4.584;2022-09-09T07:46:45;22.90;76.40
37782;DHT22;23621;50.878;4.584;2022-09-09T07:49:13;22.90;76.40
37782;DHT22;23621;50.878;4.584;2022-09-09T07:51:43;23.00;76.40
37782;DHT22;23621;50.878;4.584;2022-09-09T07:54:13;22.90;76.60
37782;DHT22;23621;50.878;4.584;2022-09-09T07:56:40;22.90;76.80
37782;DHT22;23621;50.878;4.584;2022-09-09T07:59:07;22.90;77.20
37782;DHT22;23621;50.878;4.584;2022-09-09T08:01:44;22.80;77.70
37782;DHT22;23621;50.878;4.584;2022-09-09T08:04:22;22.80;77.60
37782;DHT22;23621;50.878;4.584;2022-09-09T08:07:00;22.80;78.10
37782;DHT22;23621;50.878;4.584;2022-09-09T08:09:30;22.90;78.20
37782;DHT22;23621;50.878;4.584;2022-09-09T08:11:59;22.90;77.90
37782;DHT22;23621;50.878;4.584;2022-09-09T08:14:27;23.00;78.00
37782;DHT22;23621;50.878;4.584;2022-09-09T08:16:54;23.00;78.00
37782;DHT22;23621;50.878;4.584;2022-09-09T08:19:21;23.10;78.20
37782;DHT22;23621;50.878;4.584;2022-09-09T08:21:48;22.90;78.10
37782;DHT22;23621;50.878;4.584;2022-09-09T08:24:15;23.00;78.00
37782;DHT22;23621;50.878;4.584;2022-09-09T08:26:45;23.00;78.10
37782;DHT22;23621;50.878;4.584;2022-09-09T08:29:13;23.10;78.40
37782;DHT22;23621;50.878;4.584;2022-09-09T08:31:43;23.20;78.00
37782;DHT22;23621;50.878;4.584;2022-09-09T08:34:10;23.20;78.00
37782;DHT22;23621;50.878;4.584;2022-09-09T08:36:48;23.20;78.00
37782;DHT22;23621;50.878;4.584;2022-09-09T08:39:17;23.30;77.90
37782;DHT22;23621;50.878;4.584;2022-09-09T08:44:55;23.30;77.30
37782;DHT22;23621;50.878;4.584;2022-09-09T08:50:36;23.40;77.10
37782;DHT22;23621;50.878;4.584;2022-09-09T08:58:17;23.30;77.40
37782;DHT22;23621;50.878;4.584;2022-09-09T09:12:30;23.30;77.80
37782;DHT22;23621;50.878;4.584;2022-09-09T09:14:59;23.30;77.70
37782;DHT22;23621;50.878;4.584;2022-09-09T09:17:28;23.30;77.90
37782;DHT22;23621;50.878;4.584;2022-09-09T09:19:57;23.40;78.00
37782;DHT22;23621;50.878;4.584;2022-09-09T09:22:50;23.40;77.70
37782;DHT22;23621;50.878;4.584;2022-09-09T09:25:23;23.40;77.60
37782;DHT22;23621;50.878;4.584;2022-09-09T09:30:34;23.60;77.80
37782;DHT22;23621;50.878;4.584;2022-09-09T09:33:15;23.60;77.80
37782;DHT22;23621;50.878;4.584;2022-09-09T09:35:43;23.60;78.00
37782;DHT22;23621;50.878;4.584;2022-09-09T09:38:19;23.60;78.00
37782;DHT22;23621;50.878;4.584;2022-09-09T09:41:06;23.70;78.50
37782;DHT22;23621;50.878;4.584;2022-09-09T09:43:37;23.70;78.50
37782;DHT22;23621;50.878;4.584;2022-09-09T09:46:22;23.70;78.50
37782;DHT22;23621;50.878;4.584;2022-09-09T09:49:11;23.80;78.50
37782;DHT22;23621;50.878;4.584;2022-09-09T09:51:40;23.80;78.20
37782;DHT22;23621;50.878;4.584;2022-09-09T09:56:43;23.60;78.10
37782;DHT22;23621;50.878;4.584;2022-09-09T09:59:22;23.60;78.40
37782;DHT22;23621;50.878;4.584;2022-09-09T10:02:25;23.60;78.40
37782;DHT22;23621;50.878;4.584;2022-09-09T10:05:14;23.70;78.50
37782;DHT22;23621;50.878;4.584;2022-09-09T10:07:41;23.60;78.50
37782;DHT22;23621;50.878;4.584;2022-09-09T10:10:19;23.50;78.70
37782;DHT22;23621;50.878;4.584;2022-09-09T10:13:11;23.50;78.60
37782;DHT22;23621;50.878;4.584;2022-09-09T10:15:48;23.50;78.40
37782;DHT22;23621;50.878;4.584;2022-09-09T10:23:33;23.50;78.60
37782;DHT22;23621;50.878;4.584;2022-09-09T10:26:21;23.50;78.40
37782;DHT22;23621;50.878;4.584;2022-09-09T10:34:59;23.20;79.00
37782;DHT22;23621;50.878;4.584;2022-09-09T10:37:58;23.40;79.00
37782;DHT22;23621;50.878;4.584;2022-09-09T10:40:37;23.40;79.00
37782;DHT22;23621;50.878;4.584;2022-09-09T10:50:52;23.60;78.60
37782;DHT22;23621;50.878;4.584;2022-09-09T10:53:53;23.60;78.40
37782;DHT22;23621;50.878;4.584;2022-09-09T10:56:24;23.50;78.20
37782;DHT22;23621;50.878;4.584;2022-09-09T10:59:02;23.50;78.20
37782;DHT22;23621;50.878;4.584;2022-09-09T11:01:44;23.60;78.20
37782;DHT22;23621;50.878;4.584;2022-09-09T11:04:32;23.60;78.40
37782;DHT22;23621;50.878;4.584;2022-09-09T11:07:08;23.70;79.10
37782;DHT22;23621;50.878;4.584;2022-09-09T11:09:42;23.90;79.20
37782;DHT22;23621;50.878;4.584;2022-09-09T11:12:17;24.10;78.90
37782;DHT22;23621;50.878;4.584;2022-09-09T11:15:06;24.30;78.80
37782;DHT22;23621;50.878;4.584;2022-09-09T11:17:52;24.30;78.60
37782;DHT22;23621;50.878;4.584;2022-09-09T11:20:21;24.40;77.80
37782;DHT22;23621;50.878;4.584;2022-09-09T11:23:17;24.30;78.00
37782;DHT22;23621;50.878;4.584;2022-09-09T11:25:56;24.30;77.60
37782;DHT22;23621;50.878;4.584;2022-09-09T11:28:54;24.40;77.80
37782;DHT22;23621;50.878;4.584;2022-09-09T11:31:46;24.30;77.30
37782;DHT22;23621;50.878;4.584;2022-09-09T11:34:31;24.40;77.60
37782;DHT22;23621;50.878;4.584;2022-09-09T11:40:08;24.40;77.00
37782;DHT22;23621;50.878;4.584;2022-09-09T11:42:36;24.60;77.00
37782;DHT22;23621;50.878;4.584;2022-09-09T11:45:36;24.60;76.50
37782;DHT22;23621;50.878;4.584;2022-09-09T11:48:04;24.70;75.90
37782;DHT22;23621;50.878;4.584;2022-09-09T11:50:36;24.70;76.10
37782;DHT22;23621;50.878;4.584;2022-09-09T11:55:40;24.80;75.90
37782;DHT22;23621;50.878;4.584;2022-09-09T12:00:49;24.70;75.70
37782;DHT22;23621;50.878;4.584;2022-09-09T12:03:50;24.80;75.60
37782;DHT22;23621;50.878;4.584;2022-09-09T12:06:26;24.80;75.10
37782;DHT22;23621;50.878;4.584;2022-09-09T12:09:05;24.90;75.40
37782;DHT22;23621;50.878;4.584;2022-09-09T12:11:33;24.80;75.00
37782;DHT22;23621;50.878;4.584;2022-09-09T12:14:00;24.90;75.30
37782;DHT22;23621;50.878;4.584;2022-09-09T12:16:37;25.00;75.40
37782;DHT22;23621;50.878;4.584;2022-09-09T12:27:15;25.00;75.20
37782;DHT22;23621;50.878;4.584;2022-09-09T12:30:03;25.00;75.20
37782;DHT22;23621;50.878;4.584;2022-09-09T12:32:32;25.00;74.90
37782;DHT22;23621;50.878;4.584;2022-09-09T12:34:59;24.90;74.90
37782;DHT22;23621;50.878;4.584;2022-09-09T12:40:04;25.10;74.50
37782;DHT22;23621;50.878;4.584;2022-09-09T12:42:32;25.00;74.70
37782;DHT22;23621;50.878;4.584;2022-09-09T12:45:16;25.10;74.70
37782;DHT22;23621;50.878;4.584;2022-09-09T12:50:30;25.10;74.60
37782;DHT22;23621;50.878;4.584;2022-09-09T12:53:00;25.10;74.40
37782;DHT22;23621;50.878;4.584;2022-09-09T12:55:35;25.20;75.10
37782;DHT22;23621;50.878;4.584;2022-09-09T12:58:03;25.30;74.50
37782;DHT22;23621;50.878;4.584;2022-09-09T13:00:33;25.50;74.30
37782;DHT22;23621;50.878;4.584;2022-09-09T13:03:13;25.60;74.30
37782;DHT22;23621;50.878;4.584;2022-09-09T13:05:41;25.80;74.30
37782;DHT22;23621;50.878;4.584;2022-09-09T13:08:15;25.90;74.00
37782;DHT22;23621;50.878;4.584;2022-09-09T13:11:03;25.90;73.20
37782;DHT22;23621;50.878;4.584;2022-09-09T13:13:38;25.90;72.70
37782;DHT22;23621;50.878;4.584;2022-09-09T13:16:16;26.00;73.00
37782;DHT22;23621;50.878;4.584;2022-09-09T13:18:44;25.80;72.50
37782;DHT22;23621;50.878;4.584;2022-09-09T13:21:11;25.90;72.30
37782;DHT22;23621;50.878;4.584;2022-09-09T13:23:38;25.90;72.00
37782;DHT22;23621;50.878;4.584;2022-09-09T13:26:25;26.00;71.80
37782;DHT22;23621;50.878;4.584;2022-09-09T13:29:09;26.00;71.30
37782;DHT22;23621;50.878;4.584;2022-09-09T13:31:41;25.90;71.70
37782;DHT22;23621;50.878;4.584;2022-09-09T13:34:12;25.80;71.80
37782;DHT22;23621;50.878;4.584;2022-09-09T13:36:40;25.90;72.00
37782;DHT22;23621;50.878;4.584;2022-09-09T13:39:26;25.80;71.80
37782;DHT22;23621;50.878;4.584;2022-09-09T13:41:53;25.90;71.50
37782;DHT22;23621;50.878;4.584;2022-09-09T13:44:29;26.00;71.80
37782;DHT22;23621;50.878;4.584;2022-09-09T13:47:21;26.00;71.50
37782;DHT22;23621;50.878;4.584;2022-09-09T13:49:49;26.10;71.40
37782;DHT22;23621;50.878;4.584;2022-09-09T13:52:19;26.00;71.30
37782;DHT22;23621;50.878;4.584;2022-09-09T13:54:50;26.00;71.20
37782;DHT22;23621;50.878;4.584;2022-09-09T13:57:20;26.10;71.00
37782;DHT22;23621;50.878;4.584;2022-09-09T13:59:48;26.00;71.00
37782;DHT22;23621;50.878;4.584;2022-09-09T14:02:32;25.90;70.90
37782;DHT22;23621;50.878;4.584;2022-09-09T14:05:00;26.00;70.70
37782;DHT22;23621;50.878;4.584;2022-09-09T14:07:27;26.10;70.40
37782;DHT22;23621;50.878;4.584;2022-09-09T14:09:53;26.20;70.00
37782;DHT22;23621;50.878;4.584;2022-09-09T14:12:20;26.40;69.80
37782;DHT22;23621;50.878;4.584;2022-09-09T14:14:47;26.50;69.60
37782;DHT22;23621;50.878;4.584;2022-09-09T14:17:14;26.50;69.50
37782;DHT22;23621;50.878;4.584;2022-09-09T14:19:41;26.50;69.30
37782;DHT22;23621;50.878;4.584;2022-09-09T14:22:09;26.50;69.20
37782;DHT22;23621;50.878;4.584;2022-09-09T14:24:36;26.50;69.20
37782;DHT22;23621;50.878;4.584;2022-09-09T14:27:02;26.50;69.10
37782;DHT22;23621;50.878;4.584;2022-09-09T14:29:29;26.60;69.30
37782;DHT22;23621;50.878;4.584;2022-09-09T14:31:56;26.60;69.20
37782;DHT22;23621;50.878;4.584;2022-09-09T14:34:23;26.60;69.30
37782;DHT22;23621;50.878;4.584;2022-09-09T14:36:49;26.60;69.20
37782;DHT22;23621;50.878;4.584;2022-09-09T14:39:16;26.60;69.30
37782;DHT22;23621;50.878;4.584;2022-09-09T14:41:43;26.40;69.50
37782;DHT22;23621;50.878;4.584;2022-09-09T14:44:10;26.30;69.30
37782;DHT22;23621;50.878;4.584;2022-09-09T14:46:37;26.30;69.20
37782;DHT22;23621;50.878;4.584;2022-09-09T14:49:04;26.20;69.10
37782;DHT22;23621;50.878;4.584;2022-09-09T14:51:31;26.30;69.20
37782;DHT22;23621;50.878;4.584;2022-09-09T14:53:59;26.40;69.50
37782;DHT22;23621;50.878;4.584;2022-09-09T14:56:28;26.50;69.50
37782;DHT22;23621;50.878;4.584;2022-09-09T14:58:58;26.50;69.30
37782;DHT22;23621;50.878;4.584;2022-09-09T15:01:25;26.60;69.20
37782;DHT22;23621;50.878;4.584;2022-09-09T15:04:03;26.60;69.20
37782;DHT22;23621;50.878;4.584;2022-09-09T15:06:31;26.70;69.20
37782;DHT22;23621;50.878;4.584;2022-09-09T15:09:00;26.70;69.40
37782;DHT22;23621;50.878;4.584;2022-09-09T15:11:29;26.70;69.20
37782;DHT22;23621;50.878;4.584;2022-09-09T15:13:57;26.80;69.00
37782;DHT22;23621;50.878;4.584;2022-09-09T15:16:27;26.70;68.60
37782;DHT22;23621;50.878;4.584;2022-09-09T15:18:56;26.80;68.30
37782;DHT22;23621;50.878;4.584;2022-09-09T15:21:26;26.80;68.50
37782;DHT22;23621;50.878;4.584;2022-09-09T15:23:53;26.80;68.50
37782;DHT22;23621;50.878;4.584;2022-09-09T15:26:20;27.00;68.30
37782;DHT22;23621;50.878;4.584;2022-09-09T15:28:48;27.10;68.10
37782;DHT22;23621;50.878;4.584;2022-09-09T15:31:21;27.10;67.80
37782;DHT22;23621;50.878;4.584;2022-09-09T15:33:53;27.30;67.70
37782;DHT22;23621;50.878;4.584;2022-09-09T15:38:56;27.30;67.10
37782;DHT22;23621;50.878;4.584;2022-09-09T15:41:23;27.20;66.90
37782;DHT22;23621;50.878;4.584;2022-09-09T15:43:52;27.20;66.90
37782;DHT22;23621;50.878;4.584;2022-09-09T15:48:57;27.10;67.00
37782;DHT22;23621;50.878;4.584;2022-09-09T15:51:25;27.10;67.40
37782;DHT22;23621;50.878;4.584;2022-09-09T15:54:15;26.90;67.60
37782;DHT22;23621;50.878;4.584;2022-09-09T15:56:44;26.80;68.10
37782;DHT22;23621;50.878;4.584;2022-09-09T15:59:11;26.80;68.20
37782;DHT22;23621;50.878;4.584;2022-09-09T16:01:38;26.80;68.30
37782;DHT22;23621;50.878;4.584;2022-09-09T16:04:10;26.70;68.40
37782;DHT22;23621;50.878;4.584;2022-09-09T16:06:37;26.70;68.50
37782;DHT22;23621;50.878;4.584;2022-09-09T16:09:05;26.60;68.70
37782;DHT22;23621;50.878;4.584;2022-09-09T16:11:35;26.60;69.00
37782;DHT22;23621;50.878;4.584;2022-09-09T16:14:02;26.80;68.90
37782;DHT22;23621;50.878;4.584;2022-09-09T16:16:30;26.70;68.60
37782;DHT22;23621;50.878;4.584;2022-09-09T16:18:59;26.60;68.40
37782;DHT22;23621;50.878;4.584;2022-09-09T16:21:32;26.60;68.40
37782;DHT22;23621;50.878;4.584;2022-09-09T16:24:00;26.50;69.30
37782;DHT22;23621;50.878;4.584;2022-09-09T16:26:30;26.50;68.70
37782;DHT22;23621;50.878;4.584;2022-09-09T16:28:58;26.50;68.80
37782;DHT22;23621;50.878;4.584;2022-09-09T16:31:27;26.30;68.80
37782;DHT22;23621;50.878;4.584;2022-09-09T16:33:54;26.20;69.00
37782;DHT22;23621;50.878;4.584;2022-09-09T16:36:23;26.20;69.00
37782;DHT22;23621;50.878;4.584;2022-09-09T16:38:54;26.10;69.20
37782;DHT22;23621;50.878;4.584;2022-09-09T16:41:22;26.20;69.70
37782;DHT22;23621;50.878;4.584;2022-09-09T16:44:00;26.10;70.00
37782;DHT22;23621;50.878;4.584;2022-09-09T16:46:30;26.10;70.60
37782;DHT22;23621;50.878;4.584;2022-09-09T16:48:59;26.00;70.60
37782;DHT22;23621;50.878;4.584;2022-09-09T16:51:31;25.90;71.00
37782;DHT22;23621;50.878;4.584;2022-09-09T16:54:00;25.90;71.50
37782;DHT22;23621;50.878;4.584;2022-09-09T16:56:30;25.90;71.80
37782;DHT22;23621;50.878;4.584;2022-09-09T16:59:01;25.80;71.70
37782;DHT22;23621;50.878;4.584;2022-09-09T17:01:31;25.80;71.70
37782;DHT22;23621;50.878;4.584;2022-09-09T17:04:01;25.80;71.80
37782;DHT22;23621;50.878;4.584;2022-09-09T17:06:29;25.80;72.40
37782;DHT22;23621;50.878;4.584;2022-09-09T17:08:58;25.80;71.50
37782;DHT22;23621;50.878;4.584;2022-09-09T17:11:25;25.80;71.30
37782;DHT22;23621;50.878;4.584;2022-09-09T17:13:53;25.70;71.40
37782;DHT22;23621;50.878;4.584;2022-09-09T17:16:23;25.80;71.70
37782;DHT22;23621;50.878;4.584;2022-09-09T17:18:51;25.70;71.80
37782;DHT22;23621;50.878;4.584;2022-09-09T17:21:20;25.70;72.00
37782;DHT22;23621;50.878;4.584;2022-09-09T17:23:47;25.60;72.00
37782;DHT22;23621;50.878;4.584;2022-09-09T17:26:16;25.60;72.10
37782;DHT22;23621;50.878;4.584;2022-09-09T17:28:44;25.60;72.10
37782;DHT22;23621;50.878;4.584;2022-09-09T17:31:14;25.60;72.30
37782;DHT22;23621;50.878;4.584;2022-09-09T17:33:44;25.50;72.30
37782;DHT22;23621;50.878;4.584;2022-09-09T17:36:13;25.60;72.40
37782;DHT22;23621;50.878;4.584;2022-09-09T17:38:41;25.50;72.20
37782;DHT22;23621;50.878;4.584;2022-09-09T17:41:14;25.60;72.10
37782;DHT22;23621;50.878;4.584;2022-09-09T17:43:42;25.60;72.30
37782;DHT22;23621;50.878;4.584;2022-09-09T17:46:12;25.50;72.10
37782;DHT22;23621;50.878;4.584;2022-09-09T17:48:40;25.50;72.00
37782;DHT22;23621;50.878;4.584;2022-09-09T17:51:09;25.40;71.80
37782;DHT22;23621;50.878;4.584;2022-09-09T17:53:40;25.40;71.80
37782;DHT22;23621;50.878;4.584;2022-09-09T17:56:10;25.20;71.50
37782;DHT22;23621;50.878;4.584;2022-09-09T17:58:38;25.10;71.40